sensor_id;sensor_type;location;lat;lon;timestamp;P1;durP1;ratioP1;P2;durP2;ratioP2
74908;SDS011;63468;52.058;4.824;2022-09-24T00:00:20;29.25;;;24.80;;
74908;SDS011;63468;52.058;4.824;2022-09-24T00:02:45;29.67;;;26.08;;
74908;SDS011;63468;52.058;4.824;2022-09-24T00:05:10;28.02;;;24.77;;
74908;SDS011;63468;52.058;4.824;2022-09-24T00:07:35;27.35;;;24.27;;
74908;SDS011;63468;52.058;4.824;2022-09-24T00:10:01;26.58;;;23.73;;
74908;SDS011;63468;52.058;4.824;2022-09-24T00:12:26;29.60;;;24.42;;
74908;SDS011;63468;52.058;4.824;2022-09-24T00:14:52;26.80;;;23.65;;
74908;SDS011;63468;52.058;4.824;2022-09-24T00:17:18;31.95;;;24.80;;
74908;SDS011;63468;52.058;4.824;2022-09-24T00:19:43;29.42;;;24.13;;
74908;SDS011;63468;52.058;4.824;2022-09-24T00:22:08;27.58;;;24.60;;
74908;SDS011;63468;52.058;4.824;2022-09-24T00:24:34;27.38;;;24.48;;
74908;SDS011;63468;52.058;4.824;2022-09-24T00:27:17;29.85;;;24.70;;
74908;SDS011;63468;52.058;4.824;2022-09-24T00:29:42;31.00;;;24.35;;
74908;SDS011;63468;52.058;4.824;2022-09-24T00:32:08;28.48;;;25.02;;
74908;SDS011;63468;52.058;4.824;2022-09-24T00:34:34;32.75;;;26.67;;
74908;SDS011;63468;52.058;4.824;2022-09-24T00:36:59;41.10;;;26.98;;
74908;SDS011;63468;52.058;4.824;2022-09-24T00:39:25;31.90;;;25.88;;
74908;SDS011;63468;52.058;4.824;2022-09-24T00:41:50;36.15;;;26.73;;
74908;SDS011;63468;52.058;4.824;2022-09-24T00:50:02;33.83;;;27.80;;
74908;SDS011;63468;52.058;4.824;2022-09-24T00:52:30;32.08;;;26.88;;
74908;SDS011;63468;52.058;4.824;2022-09-24T00:54:55;37.72;;;29.00;;
74908;SDS011;63468;52.058;4.824;2022-09-24T00:57:21;35.13;;;27.98;;
74908;SDS011;63468;52.058;4.824;2022-09-24T00:59:47;35.85;;;28.10;;
74908;SDS011;63468;52.058;4.824;2022-09-24T01:02:12;34.50;;;27.63;;
74908;SDS011;63468;52.058;4.824;2022-09-24T01:04:38;37.13;;;29.05;;
74908;SDS011;63468;52.058;4.824;2022-09-24T01:07:03;35.92;;;29.90;;
74908;SDS011;63468;52.058;4.824;2022-09-24T01:09:28;36.63;;;28.80;;
74908;SDS011;63468;52.058;4.824;2022-09-24T01:11:59;35.50;;;28.70;;
74908;SDS011;63468;52.058;4.824;2022-09-24T01:20:27;36.00;;;29.85;;
74908;SDS011;63468;52.058;4.824;2022-09-24T01:31:44;41.55;;;32.22;;
74908;SDS011;63468;52.058;4.824;2022-09-24T01:34:13;37.90;;;30.83;;
74908;SDS011;63468;52.058;4.824;2022-09-24T01:36:41;41.70;;;32.15;;
74908;SDS011;63468;52.058;4.824;2022-09-24T01:39:07;42.95;;;32.38;;
74908;SDS011;63468;52.058;4.824;2022-09-24T01:41:34;41.72;;;32.67;;
74908;SDS011;63468;52.058;4.824;2022-09-24T01:44:00;43.63;;;33.63;;
74908;SDS011;63468;52.058;4.824;2022-09-24T01:46:29;47.22;;;34.97;;
74908;SDS011;63468;52.058;4.824;2022-09-24T01:48:55;46.13;;;33.42;;
74908;SDS011;63468;52.058;4.824;2022-09-24T01:51:24;44.97;;;35.60;;
74908;SDS011;63468;52.058;4.824;2022-09-24T01:53:56;43.22;;;33.67;;
74908;SDS011;63468;52.058;4.824;2022-09-24T01:56:28;42.67;;;32.53;;
74908;SDS011;63468;52.058;4.824;2022-09-24T02:01:23;45.63;;;34.00;;
74908;SDS011;63468;52.058;4.824;2022-09-24T02:03:56;42.25;;;32.88;;
74908;SDS011;63468;52.058;4.824;2022-09-24T02:06:36;43.67;;;32.50;;
74908;SDS011;63468;52.058;4.824;2022-09-24T02:09:03;37.28;;;30.65;;
74908;SDS011;63468;52.058;4.824;2022-09-24T02:11:29;38.63;;;32.10;;
74908;SDS011;63468;52.058;4.824;2022-09-24T02:13:56;35.10;;;29.85;;
74908;SDS011;63468;52.058;4.824;2022-09-24T02:16:32;37.88;;;31.75;;
74908;SDS011;63468;52.058;4.824;2022-09-24T02:19:02;39.03;;;31.30;;
74908;SDS011;63468;52.058;4.824;2022-09-24T02:21:30;40.67;;;31.40;;
74908;SDS011;63468;52.058;4.824;2022-09-24T02:24:04;42.40;;;32.97;;
74908;SDS011;63468;52.058;4.824;2022-09-24T02:26:31;37.95;;;31.48;;
74908;SDS011;63468;52.058;4.824;2022-09-24T02:28:57;40.05;;;32.33;;
74908;SDS011;63468;52.058;4.824;2022-09-24T02:31:23;40.08;;;32.55;;
74908;SDS011;63468;52.058;4.824;2022-09-24T02:33:54;42.05;;;32.40;;
74908;SDS011;63468;52.058;4.824;2022-09-24T02:36:40;42.70;;;32.80;;
74908;SDS011;63468;52.058;4.824;2022-09-24T02:39:05;39.63;;;32.47;;
74908;SDS011;63468;52.058;4.824;2022-09-24T02:41:32;53.45;;;35.40;;
74908;SDS011;63468;52.058;4.824;2022-09-24T02:43:58;46.88;;;35.00;;
74908;SDS011;63468;52.058;4.824;2022-09-24T02:46:23;45.78;;;34.10;;
74908;SDS011;63468;52.058;4.824;2022-09-24T02:48:48;42.58;;;32.63;;
74908;SDS011;63468;52.058;4.824;2022-09-24T02:51:14;44.83;;;33.97;;
74908;SDS011;63468;52.058;4.824;2022-09-24T02:53:39;45.45;;;34.40;;
74908;SDS011;63468;52.058;4.824;2022-09-24T02:56:04;43.30;;;32.22;;
74908;SDS011;63468;52.058;4.824;2022-09-24T02:58:32;43.63;;;34.55;;
74908;SDS011;63468;52.058;4.824;2022-09-24T03:00:57;48.20;;;34.22;;
74908;SDS011;63468;52.058;4.824;2022-09-24T03:03:22;46.15;;;34.45;;
74908;SDS011;63468;52.058;4.824;2022-09-24T03:05:48;41.50;;;32.70;;
74908;SDS011;63468;52.058;4.824;2022-09-24T03:08:17;43.85;;;31.67;;
74908;SDS011;63468;52.058;4.824;2022-09-24T03:10:43;41.75;;;32.40;;
74908;SDS011;63468;52.058;4.824;2022-09-24T03:13:08;44.15;;;33.30;;
74908;SDS011;63468;52.058;4.824;2022-09-24T03:15:34;36.92;;;31.15;;
74908;SDS011;63468;52.058;4.824;2022-09-24T03:18:00;43.50;;;32.75;;
74908;SDS011;63468;52.058;4.824;2022-09-24T03:20:25;41.22;;;32.75;;
74908;SDS011;63468;52.058;4.824;2022-09-24T03:22:50;37.97;;;32.00;;
74908;SDS011;63468;52.058;4.824;2022-09-24T03:25:16;46.97;;;33.67;;
74908;SDS011;63468;52.058;4.824;2022-09-24T03:27:42;43.88;;;33.97;;
74908;SDS011;63468;52.058;4.824;2022-09-24T03:30:07;43.17;;;34.83;;
74908;SDS011;63468;52.058;4.824;2022-09-24T03:32:51;45.50;;;34.40;;
74908;SDS011;63468;52.058;4.824;2022-09-24T03:35:16;47.42;;;35.38;;
74908;SDS011;63468;52.058;4.824;2022-09-24T03:37:42;40.85;;;32.20;;
74908;SDS011;63468;52.058;4.824;2022-09-24T03:40:08;43.13;;;35.03;;
74908;SDS011;63468;52.058;4.824;2022-09-24T03:42:33;48.72;;;34.83;;
74908;SDS011;63468;52.058;4.824;2022-09-24T03:44:59;43.80;;;34.13;;
74908;SDS011;63468;52.058;4.824;2022-09-24T03:47:24;43.70;;;35.20;;
74908;SDS011;63468;52.058;4.824;2022-09-24T03:49:49;50.33;;;35.33;;
74908;SDS011;63468;52.058;4.824;2022-09-24T03:52:15;45.08;;;34.22;;
74908;SDS011;63468;52.058;4.824;2022-09-24T03:54:41;48.42;;;35.08;;
74908;SDS011;63468;52.058;4.824;2022-09-24T03:57:06;46.33;;;34.38;;
74908;SDS011;63468;52.058;4.824;2022-09-24T03:59:31;48.28;;;34.63;;
74908;SDS011;63468;52.058;4.824;2022-09-24T04:01:57;47.10;;;34.65;;
74908;SDS011;63468;52.058;4.824;2022-09-24T04:04:22;48.88;;;33.80;;
74908;SDS011;63468;52.058;4.824;2022-09-24T04:06:47;47.50;;;34.97;;
74908;SDS011;63468;52.058;4.824;2022-09-24T04:09:12;48.78;;;33.85;;
74908;SDS011;63468;52.058;4.824;2022-09-24T04:11:38;48.38;;;33.20;;
74908;SDS011;63468;52.058;4.824;2022-09-24T04:14:03;47.53;;;35.53;;
74908;SDS011;63468;52.058;4.824;2022-09-24T04:16:29;50.88;;;35.92;;
74908;SDS011;63468;52.058;4.824;2022-09-24T04:18:54;49.25;;;34.47;;
74908;SDS011;63468;52.058;4.824;2022-09-24T04:21:19;46.75;;;34.42;;
74908;SDS011;63468;52.058;4.824;2022-09-24T04:23:45;47.72;;;34.15;;
74908;SDS011;63468;52.058;4.824;2022-09-24T04:26:11;51.05;;;34.75;;
74908;SDS011;63468;52.058;4.824;2022-09-24T04:28:36;50.40;;;35.42;;
74908;SDS011;63468;52.058;4.824;2022-09-24T04:31:01;54.33;;;36.95;;
74908;SDS011;63468;52.058;4.824;2022-09-24T04:33:27;51.08;;;35.85;;
74908;SDS011;63468;52.058;4.824;2022-09-24T04:35:52;49.60;;;36.13;;
74908;SDS011;63468;52.058;4.824;2022-09-24T04:38:17;48.95;;;35.53;;
74908;SDS011;63468;52.058;4.824;2022-09-24T04:40:45;46.92;;;35.83;;
74908;SDS011;63468;52.058;4.824;2022-09-24T04:43:11;54.15;;;36.83;;
74908;SDS011;63468;52.058;4.824;2022-09-24T04:45:37;49.85;;;35.67;;
74908;SDS011;63468;52.058;4.824;2022-09-24T04:48:02;51.80;;;35.72;;
74908;SDS011;63468;52.058;4.824;2022-09-24T04:50:28;51.88;;;37.00;;
74908;SDS011;63468;52.058;4.824;2022-09-24T04:52:57;58.03;;;38.53;;
74908;SDS011;63468;52.058;4.824;2022-09-24T04:55:23;57.92;;;38.13;;
74908;SDS011;63468;52.058;4.824;2022-09-24T04:57:50;60.25;;;38.95;;
74908;SDS011;63468;52.058;4.824;2022-09-24T05:00:16;54.25;;;38.28;;
74908;SDS011;63468;52.058;4.824;2022-09-24T05:02:43;65.40;;;37.97;;
74908;SDS011;63468;52.058;4.824;2022-09-24T05:05:09;56.17;;;37.08;;
74908;SDS011;63468;52.058;4.824;2022-09-24T05:07:35;59.83;;;38.92;;
74908;SDS011;63468;52.058;4.824;2022-09-24T05:10:01;58.85;;;36.42;;
74908;SDS011;63468;52.058;4.824;2022-09-24T05:12:26;54.88;;;37.67;;
74908;SDS011;63468;52.058;4.824;2022-09-24T05:14:51;65.45;;;38.97;;
74908;SDS011;63468;52.058;4.824;2022-09-24T05:17:16;56.75;;;37.70;;
74908;SDS011;63468;52.058;4.824;2022-09-24T05:19:42;60.28;;;37.28;;
74908;SDS011;63468;52.058;4.824;2022-09-24T05:22:08;65.10;;;38.58;;
74908;SDS011;63468;52.058;4.824;2022-09-24T05:24:33;59.80;;;35.92;;
74908;SDS011;63468;52.058;4.824;2022-09-24T05:26:58;58.92;;;37.97;;
74908;SDS011;63468;52.058;4.824;2022-09-24T05:29:33;61.70;;;39.80;;
74908;SDS011;63468;52.058;4.824;2022-09-24T05:32:01;59.30;;;38.55;;
74908;SDS011;63468;52.058;4.824;2022-09-24T05:34:29;57.00;;;39.25;;
74908;SDS011;63468;52.058;4.824;2022-09-24T05:36:55;59.03;;;37.67;;
74908;SDS011;63468;52.058;4.824;2022-09-24T05:39:20;63.10;;;38.45;;
74908;SDS011;63468;52.058;4.824;2022-09-24T05:41:45;61.78;;;37.35;;
74908;SDS011;63468;52.058;4.824;2022-09-24T05:44:11;60.50;;;40.95;;
74908;SDS011;63468;52.058;4.824;2022-09-24T05:46:36;62.08;;;40.80;;
74908;SDS011;63468;52.058;4.824;2022-09-24T05:49:02;56.58;;;39.13;;
74908;SDS011;63468;52.058;4.824;2022-09-24T05:51:27;53.25;;;37.40;;
74908;SDS011;63468;52.058;4.824;2022-09-24T05:53:53;54.33;;;38.72;;
74908;SDS011;63468;52.058;4.824;2022-09-24T05:56:18;50.17;;;37.22;;
74908;SDS011;63468;52.058;4.824;2022-09-24T05:58:43;53.50;;;38.45;;
74908;SDS011;63468;52.058;4.824;2022-09-24T06:01:09;56.35;;;39.40;;
74908;SDS011;63468;52.058;4.824;2022-09-24T06:03:34;60.55;;;39.28;;
74908;SDS011;63468;52.058;4.824;2022-09-24T06:05:59;54.45;;;38.00;;
74908;SDS011;63468;52.058;4.824;2022-09-24T06:08:26;62.88;;;40.70;;
74908;SDS011;63468;52.058;4.824;2022-09-24T06:10:56;73.55;;;42.22;;
74908;SDS011;63468;52.058;4.824;2022-09-24T06:13:26;67.60;;;41.95;;
74908;SDS011;63468;52.058;4.824;2022-09-24T06:15:52;65.43;;;41.53;;
74908;SDS011;63468;52.058;4.824;2022-09-24T06:18:19;61.90;;;39.70;;
74908;SDS011;63468;52.058;4.824;2022-09-24T06:20:44;64.43;;;40.97;;
74908;SDS011;63468;52.058;4.824;2022-09-24T06:23:10;64.10;;;39.67;;
74908;SDS011;63468;52.058;4.824;2022-09-24T06:25:36;53.83;;;35.80;;
74908;SDS011;63468;52.058;4.824;2022-09-24T06:28:02;45.63;;;32.53;;
74908;SDS011;63468;52.058;4.824;2022-09-24T06:30:29;51.38;;;32.28;;
74908;SDS011;63468;52.058;4.824;2022-09-24T06:35:51;42.92;;;28.42;;
74908;SDS011;63468;52.058;4.824;2022-09-24T06:38:17;39.60;;;28.42;;
74908;SDS011;63468;52.058;4.824;2022-09-24T06:40:43;35.40;;;26.20;;
74908;SDS011;63468;52.058;4.824;2022-09-24T06:43:09;33.33;;;26.30;;
74908;SDS011;63468;52.058;4.824;2022-09-24T06:45:35;32.05;;;24.20;;
74908;SDS011;63468;52.058;4.824;2022-09-24T06:48:01;32.55;;;23.23;;
74908;SDS011;63468;52.058;4.824;2022-09-24T06:50:28;29.00;;;22.85;;
74908;SDS011;63468;52.058;4.824;2022-09-24T06:52:54;30.10;;;24.13;;
74908;SDS011;63468;52.058;4.824;2022-09-24T06:55:20;33.13;;;24.30;;
74908;SDS011;63468;52.058;4.824;2022-09-24T06:57:46;35.17;;;23.60;;
74908;SDS011;63468;52.058;4.824;2022-09-24T07:00:12;33.55;;;25.05;;
74908;SDS011;63468;52.058;4.824;2022-09-24T07:02:38;35.35;;;25.63;;
74908;SDS011;63468;52.058;4.824;2022-09-24T07:05:04;35.95;;;25.00;;
74908;SDS011;63468;52.058;4.824;2022-09-24T07:07:30;38.58;;;25.63;;
74908;SDS011;63468;52.058;4.824;2022-09-24T07:09:58;33.78;;;24.48;;
74908;SDS011;63468;52.058;4.824;2022-09-24T07:12:28;36.13;;;25.35;;
74908;SDS011;63468;52.058;4.824;2022-09-24T07:14:55;37.13;;;27.10;;
74908;SDS011;63468;52.058;4.824;2022-09-24T07:17:20;37.33;;;28.55;;
74908;SDS011;63468;52.058;4.824;2022-09-24T07:19:46;34.63;;;26.75;;
74908;SDS011;63468;52.058;4.824;2022-09-24T07:22:11;34.97;;;29.58;;
74908;SDS011;63468;52.058;4.824;2022-09-24T07:24:36;28.17;;;23.17;;
74908;SDS011;63468;52.058;4.824;2022-09-24T07:27:05;32.10;;;24.63;;
74908;SDS011;63468;52.058;4.824;2022-09-24T07:29:31;36.88;;;26.75;;
74908;SDS011;63468;52.058;4.824;2022-09-24T07:31:56;45.53;;;29.20;;
74908;SDS011;63468;52.058;4.824;2022-09-24T07:34:22;40.20;;;27.98;;
74908;SDS011;63468;52.058;4.824;2022-09-24T07:36:47;39.97;;;28.90;;
74908;SDS011;63468;52.058;4.824;2022-09-24T07:39:12;40.45;;;28.58;;
74908;SDS011;63468;52.058;4.824;2022-09-24T07:41:38;40.40;;;28.50;;
74908;SDS011;63468;52.058;4.824;2022-09-24T07:44:04;45.83;;;30.13;;
74908;SDS011;63468;52.058;4.824;2022-09-24T07:46:31;42.45;;;30.30;;
74908;SDS011;63468;52.058;4.824;2022-09-24T07:48:57;40.83;;;28.70;;
74908;SDS011;63468;52.058;4.824;2022-09-24T07:51:22;43.45;;;29.20;;
74908;SDS011;63468;52.058;4.824;2022-09-24T07:53:49;36.35;;;25.63;;
74908;SDS011;63468;52.058;4.824;2022-09-24T07:56:15;38.15;;;25.73;;
74908;SDS011;63468;52.058;4.824;2022-09-24T07:58:41;35.08;;;26.02;;
74908;SDS011;63468;52.058;4.824;2022-09-24T08:01:06;36.92;;;26.05;;
74908;SDS011;63468;52.058;4.824;2022-09-24T08:03:31;38.65;;;26.42;;
74908;SDS011;63468;52.058;4.824;2022-09-24T08:05:57;32.45;;;23.42;;
74908;SDS011;63468;52.058;4.824;2022-09-24T08:08:23;30.50;;;19.55;;
74908;SDS011;63468;52.058;4.824;2022-09-24T08:10:49;22.95;;;17.73;;
74908;SDS011;63468;52.058;4.824;2022-09-24T08:13:14;20.65;;;15.65;;
74908;SDS011;63468;52.058;4.824;2022-09-24T08:15:40;21.17;;;14.80;;
74908;SDS011;63468;52.058;4.824;2022-09-24T08:18:05;15.77;;;14.20;;
74908;SDS011;63468;52.058;4.824;2022-09-24T08:20:31;20.38;;;14.45;;
74908;SDS011;63468;52.058;4.824;2022-09-24T08:23:00;19.15;;;13.75;;
74908;SDS011;63468;52.058;4.824;2022-09-24T08:25:26;22.98;;;15.18;;
74908;SDS011;63468;52.058;4.824;2022-09-24T08:27:51;18.13;;;15.80;;
74908;SDS011;63468;52.058;4.824;2022-09-24T08:30:17;18.80;;;15.15;;
74908;SDS011;63468;52.058;4.824;2022-09-24T08:32:45;23.60;;;15.55;;
74908;SDS011;63468;52.058;4.824;2022-09-24T08:35:14;15.93;;;14.48;;
74908;SDS011;63468;52.058;4.824;2022-09-24T08:37:39;20.98;;;14.40;;
74908;SDS011;63468;52.058;4.824;2022-09-24T08:40:05;15.27;;;13.90;;
74908;SDS011;63468;52.058;4.824;2022-09-24T08:45:06;17.75;;;14.10;;
74908;SDS011;63468;52.058;4.824;2022-09-24T08:47:56;21.40;;;13.88;;
74908;SDS011;63468;52.058;4.824;2022-09-24T08:50:28;15.25;;;13.68;;
74908;SDS011;63468;52.058;4.824;2022-09-24T08:52:58;20.48;;;13.95;;
74908;SDS011;63468;52.058;4.824;2022-09-24T09:00:38;18.77;;;14.00;;
74908;SDS011;63468;52.058;4.824;2022-09-24T09:03:08;15.10;;;13.45;;
74908;SDS011;63468;52.058;4.824;2022-09-24T09:06:28;17.85;;;14.18;;
74908;SDS011;63468;52.058;4.824;2022-09-24T09:09:02;17.60;;;14.68;;
74908;SDS011;63468;52.058;4.824;2022-09-24T09:11:35;15.95;;;14.15;;
74908;SDS011;63468;52.058;4.824;2022-09-24T09:14:03;19.25;;;13.50;;
74908;SDS011;63468;52.058;4.824;2022-09-24T09:16:54;16.85;;;13.35;;
74908;SDS011;63468;52.058;4.824;2022-09-24T09:19:27;14.45;;;12.98;;
74908;SDS011;63468;52.058;4.824;2022-09-24T09:24:25;16.10;;;12.90;;
74908;SDS011;63468;52.058;4.824;2022-09-24T09:26:56;17.05;;;12.60;;
74908;SDS011;63468;52.058;4.824;2022-09-24T09:29:22;17.65;;;12.60;;
74908;SDS011;63468;52.058;4.824;2022-09-24T09:32:12;17.05;;;12.85;;
74908;SDS011;63468;52.058;4.824;2022-09-24T09:35:05;16.65;;;13.40;;
74908;SDS011;63468;52.058;4.824;2022-09-24T09:37:48;16.77;;;13.50;;
74908;SDS011;63468;52.058;4.824;2022-09-24T09:43:08;14.60;;;13.07;;
74908;SDS011;63468;52.058;4.824;2022-09-24T09:45:54;16.95;;;13.15;;
74908;SDS011;63468;52.058;4.824;2022-09-24T09:48:30;16.48;;;13.20;;
74908;SDS011;63468;52.058;4.824;2022-09-24T09:51:05;14.60;;;13.02;;
74908;SDS011;63468;52.058;4.824;2022-09-24T09:53:31;17.85;;;13.40;;
74908;SDS011;63468;52.058;4.824;2022-09-24T09:55:57;15.35;;;13.90;;
74908;SDS011;63468;52.058;4.824;2022-09-24T09:58:27;16.10;;;14.38;;
74908;SDS011;63468;52.058;4.824;2022-09-24T10:01:11;16.92;;;15.13;;
74908;SDS011;63468;52.058;4.824;2022-09-24T10:06:10;15.50;;;14.00;;
74908;SDS011;63468;52.058;4.824;2022-09-24T10:08:37;16.50;;;14.30;;
74908;SDS011;63468;52.058;4.824;2022-09-24T10:11:04;20.20;;;14.52;;
74908;SDS011;63468;52.058;4.824;2022-09-24T10:13:31;18.17;;;14.45;;
74908;SDS011;63468;52.058;4.824;2022-09-24T10:16:00;21.77;;;14.80;;
74908;SDS011;63468;52.058;4.824;2022-09-24T10:18:34;21.98;;;15.07;;
74908;SDS011;63468;52.058;4.824;2022-09-24T10:21:05;21.75;;;15.13;;
74908;SDS011;63468;52.058;4.824;2022-09-24T10:23:40;20.25;;;14.38;;
74908;SDS011;63468;52.058;4.824;2022-09-24T10:26:07;21.83;;;14.80;;
74908;SDS011;63468;52.058;4.824;2022-09-24T10:28:33;20.52;;;15.23;;
74908;SDS011;63468;52.058;4.824;2022-09-24T10:31:18;16.25;;;14.55;;
74908;SDS011;63468;52.058;4.824;2022-09-24T10:33:47;16.02;;;14.27;;
74908;SDS011;63468;52.058;4.824;2022-09-24T10:36:15;19.48;;;17.13;;
74908;SDS011;63468;52.058;4.824;2022-09-24T10:38:47;16.77;;;14.95;;
74908;SDS011;63468;52.058;4.824;2022-09-24T10:41:14;17.90;;;15.18;;
74908;SDS011;63468;52.058;4.824;2022-09-24T10:43:48;20.85;;;14.98;;
74908;SDS011;63468;52.058;4.824;2022-09-24T10:46:16;18.52;;;13.77;;
74908;SDS011;63468;52.058;4.824;2022-09-24T10:48:58;20.30;;;14.90;;
74908;SDS011;63468;52.058;4.824;2022-09-24T10:51:38;15.50;;;13.88;;
74908;SDS011;63468;52.058;4.824;2022-09-24T10:54:21;15.18;;;13.73;;
74908;SDS011;63468;52.058;4.824;2022-09-24T11:05:36;18.60;;;14.70;;
74908;SDS011;63468;52.058;4.824;2022-09-24T11:08:46;19.37;;;15.00;;
74908;SDS011;63468;52.058;4.824;2022-09-24T11:17:47;19.85;;;15.10;;
74908;SDS011;63468;52.058;4.824;2022-09-24T11:20:01;18.88;;;13.73;;
74908;SDS011;63468;52.058;4.824;2022-09-24T11:34:00;17.08;;;14.32;;
74908;SDS011;63468;52.058;4.824;2022-09-24T11:44:54;19.52;;;14.93;;
74908;SDS011;63468;52.058;4.824;2022-09-24T11:50:33;17.05;;;13.82;;
74908;SDS011;63468;52.058;4.824;2022-09-24T11:53:15;16.70;;;14.10;;
74908;SDS011;63468;52.058;4.824;2022-09-24T11:55:46;15.10;;;13.53;;
74908;SDS011;63468;52.058;4.824;2022-09-24T11:58:19;18.30;;;14.18;;
74908;SDS011;63468;52.058;4.824;2022-09-24T12:00:58;17.67;;;16.13;;
74908;SDS011;63468;52.058;4.824;2022-09-24T12:06:23;17.15;;;15.75;;
74908;SDS011;63468;52.058;4.824;2022-09-24T12:09:07;18.35;;;16.38;;
74908;SDS011;63468;52.058;4.824;2022-09-24T12:11:44;17.20;;;15.40;;
74908;SDS011;63468;52.058;4.824;2022-09-24T12:14:13;23.23;;;16.02;;
74908;SDS011;63468;52.058;4.824;2022-09-24T12:16:42;17.33;;;15.52;;
74908;SDS011;63468;52.058;4.824;2022-09-24T12:21:59;17.38;;;15.48;;
74908;SDS011;63468;52.058;4.824;2022-09-24T12:24:32;17.08;;;15.27;;
74908;SDS011;63468;52.058;4.824;2022-09-24T12:27:18;16.63;;;14.85;;
74908;SDS011;63468;52.058;4.824;2022-09-24T12:29:51;16.70;;;14.90;;
74908;SDS011;63468;52.058;4.824;2022-09-24T12:32:49;16.67;;;15.13;;
74908;SDS011;63468;52.058;4.824;2022-09-24T12:38:16;17.25;;;15.60;;
74908;SDS011;63468;52.058;4.824;2022-09-24T12:46:20;17.13;;;15.30;;
74908;SDS011;63468;52.058;4.824;2022-09-24T12:48:47;17.15;;;15.30;;
74908;SDS011;63468;52.058;4.824;2022-09-24T12:51:13;18.80;;;16.92;;
74908;SDS011;63468;52.058;4.824;2022-09-24T12:53:40;18.08;;;16.30;;
74908;SDS011;63468;52.058;4.824;2022-09-24T12:56:06;16.83;;;15.43;;
74908;SDS011;63468;52.058;4.824;2022-09-24T13:01:24;17.35;;;15.73;;
74908;SDS011;63468;52.058;4.824;2022-09-24T13:04:03;19.35;;;15.38;;
74908;SDS011;63468;52.058;4.824;2022-09-24T13:06:34;19.55;;;15.23;;
74908;SDS011;63468;52.058;4.824;2022-09-24T13:09:01;16.40;;;14.82;;
74908;SDS011;63468;52.058;4.824;2022-09-24T13:13:59;15.65;;;14.15;;
74908;SDS011;63468;52.058;4.824;2022-09-24T13:16:35;17.88;;;14.70;;
74908;SDS011;63468;52.058;4.824;2022-09-24T13:19:02;15.57;;;13.95;;
74908;SDS011;63468;52.058;4.824;2022-09-24T13:21:30;14.95;;;13.65;;
74908;SDS011;63468;52.058;4.824;2022-09-24T13:23:55;15.52;;;13.57;;
74908;SDS011;63468;52.058;4.824;2022-09-24T13:26:31;16.80;;;13.48;;
74908;SDS011;63468;52.058;4.824;2022-09-24T13:29:04;15.00;;;13.50;;
74908;SDS011;63468;52.058;4.824;2022-09-24T13:31:49;15.15;;;13.55;;
74908;SDS011;63468;52.058;4.824;2022-09-24T13:34:21;15.02;;;13.48;;
74908;SDS011;63468;52.058;4.824;2022-09-24T13:36:53;14.80;;;13.45;;
74908;SDS011;63468;52.058;4.824;2022-09-24T13:42:03;16.90;;;13.00;;
74908;SDS011;63468;52.058;4.824;2022-09-24T13:45:05;15.05;;;13.48;;
74908;SDS011;63468;52.058;4.824;2022-09-24T13:47:41;14.18;;;12.82;;
74908;SDS011;63468;52.058;4.824;2022-09-24T13:50:13;14.27;;;12.80;;
74908;SDS011;63468;52.058;4.824;2022-09-24T13:52:42;14.88;;;13.40;;
74908;SDS011;63468;52.058;4.824;2022-09-24T13:55:23;15.43;;;13.48;;
74908;SDS011;63468;52.058;4.824;2022-09-24T13:57:50;15.23;;;13.75;;
74908;SDS011;63468;52.058;4.824;2022-09-24T14:00:19;18.85;;;13.95;;
74908;SDS011;63468;52.058;4.824;2022-09-24T14:03:01;14.73;;;13.32;;
74908;SDS011;63468;52.058;4.824;2022-09-24T14:05:29;14.70;;;13.27;;
74908;SDS011;63468;52.058;4.824;2022-09-24T14:10:30;15.35;;;13.90;;
74908;SDS011;63468;52.058;4.824;2022-09-24T14:16:19;15.45;;;13.90;;
74908;SDS011;63468;52.058;4.824;2022-09-24T14:18:44;15.30;;;13.77;;
74908;SDS011;63468;52.058;4.824;2022-09-24T14:24:20;17.50;;;13.90;;
74908;SDS011;63468;52.058;4.824;2022-09-24T14:29:21;15.15;;;13.52;;
74908;SDS011;63468;52.058;4.824;2022-09-24T14:31:51;18.08;;;13.90;;
74908;SDS011;63468;52.058;4.824;2022-09-24T14:34:33;14.57;;;12.90;;
74908;SDS011;63468;52.058;4.824;2022-09-24T14:37:19;15.00;;;12.65;;
74908;SDS011;63468;52.058;4.824;2022-09-24T14:39:47;13.80;;;12.40;;
74908;SDS011;63468;52.058;4.824;2022-09-24T14:42:30;16.52;;;13.18;;
74908;SDS011;63468;52.058;4.824;2022-09-24T14:44:56;14.57;;;13.15;;
74908;SDS011;63468;52.058;4.824;2022-09-24T14:47:24;14.70;;;13.20;;
74908;SDS011;63468;52.058;4.824;2022-09-24T14:49:53;13.70;;;12.50;;
74908;SDS011;63468;52.058;4.824;2022-09-24T14:52:37;14.48;;;12.98;;
74908;SDS011;63468;52.058;4.824;2022-09-24T14:55:16;13.98;;;12.85;;
74908;SDS011;63468;52.058;4.824;2022-09-24T14:57:44;13.65;;;12.07;;
74908;SDS011;63468;52.058;4.824;2022-09-24T15:00:17;13.98;;;12.63;;
74908;SDS011;63468;52.058;4.824;2022-09-24T15:03:00;14.55;;;13.18;;
74908;SDS011;63468;52.058;4.824;2022-09-24T15:05:36;14.35;;;12.63;;
74908;SDS011;63468;52.058;4.824;2022-09-24T15:10:55;14.10;;;12.50;;
74908;SDS011;63468;52.058;4.824;2022-09-24T15:13:28;15.60;;;14.00;;
74908;SDS011;63468;52.058;4.824;2022-09-24T15:21:51;13.98;;;12.43;;
74908;SDS011;63468;52.058;4.824;2022-09-24T15:24:19;14.70;;;13.43;;
74908;SDS011;63468;52.058;4.824;2022-09-24T15:26:46;13.63;;;12.13;;
74908;SDS011;63468;52.058;4.824;2022-09-24T15:29:16;13.70;;;12.40;;
74908;SDS011;63468;52.058;4.824;2022-09-24T15:31:47;14.93;;;13.10;;
74908;SDS011;63468;52.058;4.824;2022-09-24T15:34:14;12.75;;;11.65;;
74908;SDS011;63468;52.058;4.824;2022-09-24T15:36:39;13.57;;;12.27;;
74908;SDS011;63468;52.058;4.824;2022-09-24T15:39:05;13.05;;;11.82;;
74908;SDS011;63468;52.058;4.824;2022-09-24T15:41:31;13.60;;;12.13;;
74908;SDS011;63468;52.058;4.824;2022-09-24T15:43:57;13.15;;;11.93;;
74908;SDS011;63468;52.058;4.824;2022-09-24T15:46:23;13.57;;;11.77;;
74908;SDS011;63468;52.058;4.824;2022-09-24T15:48:49;13.07;;;11.70;;
74908;SDS011;63468;52.058;4.824;2022-09-24T15:51:14;13.70;;;12.40;;
74908;SDS011;63468;52.058;4.824;2022-09-24T15:53:42;13.75;;;12.38;;
74908;SDS011;63468;52.058;4.824;2022-09-24T15:56:07;13.05;;;11.93;;
74908;SDS011;63468;52.058;4.824;2022-09-24T15:58:33;14.27;;;12.70;;
74908;SDS011;63468;52.058;4.824;2022-09-24T16:00:58;13.98;;;12.20;;
74908;SDS011;63468;52.058;4.824;2022-09-24T16:03:25;17.13;;;12.27;;
74908;SDS011;63468;52.058;4.824;2022-09-24T16:05:52;12.68;;;11.32;;
74908;SDS011;63468;52.058;4.824;2022-09-24T16:08:18;12.90;;;11.65;;
74908;SDS011;63468;52.058;4.824;2022-09-24T16:10:43;15.13;;;12.63;;
74908;SDS011;63468;52.058;4.824;2022-09-24T16:13:09;15.15;;;11.73;;
74908;SDS011;63468;52.058;4.824;2022-09-24T16:15:35;13.30;;;11.30;;
74908;SDS011;63468;52.058;4.824;2022-09-24T16:18:01;12.27;;;11.20;;
74908;SDS011;63468;52.058;4.824;2022-09-24T16:20:26;12.00;;;10.90;;
74908;SDS011;63468;52.058;4.824;2022-09-24T16:22:52;12.82;;;11.63;;
74908;SDS011;63468;52.058;4.824;2022-09-24T16:25:17;14.30;;;12.45;;
74908;SDS011;63468;52.058;4.824;2022-09-24T16:27:42;12.85;;;11.52;;
74908;SDS011;63468;52.058;4.824;2022-09-24T16:30:08;12.25;;;11.15;;
74908;SDS011;63468;52.058;4.824;2022-09-24T16:32:34;13.50;;;12.20;;